sensor_id;sensor_type;location;lat;lon;timestamp;P1;durP1;ratioP1;P2;durP2;ratioP2
42478;SDS011;28110;47.080;9.476;2023-03-23T00:01:00;5.72;;;3.55;;
42478;SDS011;28110;47.080;9.476;2023-03-23T00:03:26;9.97;;;3.60;;
42478;SDS011;28110;47.080;9.476;2023-03-23T00:05:53;6.78;;;4.13;;
42478;SDS011;28110;47.080;9.476;2023-03-23T00:08:30;7.70;;;3.88;;
42478;SDS011;28110;47.080;9.476;2023-03-23T00:10:56;5.80;;;3.63;;
42478;SDS011;28110;47.080;9.476;2023-03-23T00:13:25;6.30;;;4.10;;
42478;SDS011;28110;47.080;9.476;2023-03-23T00:15:52;7.60;;;4.00;;
42478;SDS011;28110;47.080;9.476;2023-03-23T00:18:20;7.72;;;3.83;;
42478;SDS011;28110;47.080;9.476;2023-03-23T00:20:48;7.57;;;3.53;;
42478;SDS011;28110;47.080;9.476;2023-03-23T00:23:17;5.03;;;3.53;;
42478;SDS011;28110;47.080;9.476;2023-03-23T00:25:47;5.45;;;3.75;;
42478;SDS011;28110;47.080;9.476;2023-03-23T00:28:15;7.82;;;3.90;;
42478;SDS011;28110;47.080;9.476;2023-03-23T00:30:41;5.88;;;4.15;;
42478;SDS011;28110;47.080;9.476;2023-03-23T00:33:08;9.43;;;4.23;;
42478;SDS011;28110;47.080;9.476;2023-03-23T00:35:37;9.05;;;3.80;;
42478;SDS011;28110;47.080;9.476;2023-03-23T00:38:03;7.22;;;4.15;;
42478;SDS011;28110;47.080;9.476;2023-03-23T00:40:29;8.07;;;4.37;;
42478;SDS011;28110;47.080;9.476;2023-03-23T00:42:55;7.95;;;4.03;;
42478;SDS011;28110;47.080;9.476;2023-03-23T00:45:21;6.93;;;3.80;;
42478;SDS011;28110;47.080;9.476;2023-03-23T00:47:48;5.63;;;3.70;;
42478;SDS011;28110;47.080;9.476;2023-03-23T00:50:16;7.03;;;4.00;;
42478;SDS011;28110;47.080;9.476;2023-03-23T00:52:43;6.32;;;3.70;;
42478;SDS011;28110;47.080;9.476;2023-03-23T00:55:08;5.60;;;3.65;;
42478;SDS011;28110;47.080;9.476;2023-03-23T00:57:35;7.43;;;4.53;;
42478;SDS011;28110;47.080;9.476;2023-03-23T01:00:00;6.80;;;4.50;;
42478;SDS011;28110;47.080;9.476;2023-03-23T01:02:26;7.70;;;3.90;;
42478;SDS011;28110;47.080;9.476;2023-03-23T01:04:51;6.63;;;3.80;;
42478;SDS011;28110;47.080;9.476;2023-03-23T01:07:20;7.30;;;3.50;;
42478;SDS011;28110;47.080;9.476;2023-03-23T01:09:48;6.35;;;4.28;;
42478;SDS011;28110;47.080;9.476;2023-03-23T01:12:13;5.72;;;3.60;;
42478;SDS011;28110;47.080;9.476;2023-03-23T01:14:40;9.05;;;3.65;;
42478;SDS011;28110;47.080;9.476;2023-03-23T01:17:06;9.38;;;3.95;;
42478;SDS011;28110;47.080;9.476;2023-03-23T01:19:32;5.88;;;3.47;;
42478;SDS011;28110;47.080;9.476;2023-03-23T01:21:58;10.23;;;4.20;;
42478;SDS011;28110;47.080;9.476;2023-03-23T01:24:23;5.25;;;3.60;;
42478;SDS011;28110;47.080;9.476;2023-03-23T01:26:49;7.10;;;3.90;;
42478;SDS011;28110;47.080;9.476;2023-03-23T01:29:15;7.57;;;4.20;;
42478;SDS011;28110;47.080;9.476;2023-03-23T01:31:40;6.03;;;3.80;;
42478;SDS011;28110;47.080;9.476;2023-03-23T01:34:07;7.00;;;4.30;;
42478;SDS011;28110;47.080;9.476;2023-03-23T01:36:33;7.67;;;4.30;;
42478;SDS011;28110;47.080;9.476;2023-03-23T01:38:59;8.93;;;4.47;;
42478;SDS011;28110;47.080;9.476;2023-03-23T01:41:27;6.40;;;4.38;;
42478;SDS011;28110;47.080;9.476;2023-03-23T01:44:01;5.87;;;4.17;;
42478;SDS011;28110;47.080;9.476;2023-03-23T01:46:53;8.63;;;4.93;;
42478;SDS011;28110;47.080;9.476;2023-03-23T01:49:21;5.93;;;4.25;;
42478;SDS011;28110;47.080;9.476;2023-03-23T01:51:55;8.35;;;4.22;;
42478;SDS011;28110;47.080;9.476;2023-03-23T01:54:25;6.90;;;4.45;;
42478;SDS011;28110;47.080;9.476;2023-03-23T01:56:53;9.45;;;4.93;;
42478;SDS011;28110;47.080;9.476;2023-03-23T01:59:42;5.28;;;3.90;;
42478;SDS011;28110;47.080;9.476;2023-03-23T02:02:10;7.85;;;4.57;;
42478;SDS011;28110;47.080;9.476;2023-03-23T02:04:37;8.50;;;4.38;;
42478;SDS011;28110;47.080;9.476;2023-03-23T02:07:06;6.97;;;4.47;;
42478;SDS011;28110;47.080;9.476;2023-03-23T02:09:32;6.68;;;4.38;;
42478;SDS011;28110;47.080;9.476;2023-03-23T02:11:59;7.65;;;4.93;;
42478;SDS011;28110;47.080;9.476;2023-03-23T02:14:25;7.43;;;4.37;;
42478;SDS011;28110;47.080;9.476;2023-03-23T02:25:46;11.02;;;4.40;;
42478;SDS011;28110;47.080;9.476;2023-03-23T02:28:31;7.27;;;4.57;;
42478;SDS011;28110;47.080;9.476;2023-03-23T02:31:15;5.78;;;4.18;;
42478;SDS011;28110;47.080;9.476;2023-03-23T02:33:55;5.85;;;4.30;;
42478;SDS011;28110;47.080;9.476;2023-03-23T02:36:28;7.30;;;4.20;;
42478;SDS011;28110;47.080;9.476;2023-03-23T02:39:00;8.65;;;4.00;;
42478;SDS011;28110;47.080;9.476;2023-03-23T02:41:28;8.17;;;4.50;;
42478;SDS011;28110;47.080;9.476;2023-03-23T02:43:56;7.75;;;4.20;;
42478;SDS011;28110;47.080;9.476;2023-03-23T02:46:23;6.25;;;3.85;;
42478;SDS011;28110;47.080;9.476;2023-03-23T02:48:50;8.13;;;4.32;;
42478;SDS011;28110;47.080;9.476;2023-03-23T02:51:19;6.07;;;3.72;;
42478;SDS011;28110;47.080;9.476;2023-03-23T02:53:46;10.70;;;4.00;;
42478;SDS011;28110;47.080;9.476;2023-03-23T02:56:15;5.70;;;4.03;;
42478;SDS011;28110;47.080;9.476;2023-03-23T02:58:41;7.10;;;3.85;;
42478;SDS011;28110;47.080;9.476;2023-03-23T03:02:08;6.57;;;4.10;;
42478;SDS011;28110;47.080;9.476;2023-03-23T03:04:20;6.38;;;3.92;;
42478;SDS011;28110;47.080;9.476;2023-03-23T03:12:04;6.22;;;3.60;;
42478;SDS011;28110;47.080;9.476;2023-03-23T03:14:45;5.50;;;3.88;;
42478;SDS011;28110;47.080;9.476;2023-03-23T03:17:32;5.85;;;3.80;;
42478;SDS011;28110;47.080;9.476;2023-03-23T03:20:04;11.95;;;3.80;;
42478;SDS011;28110;47.080;9.476;2023-03-23T03:22:35;5.90;;;3.50;;
42478;SDS011;28110;47.080;9.476;2023-03-23T03:25:04;7.80;;;3.90;;
42478;SDS011;28110;47.080;9.476;2023-03-23T03:27:31;6.57;;;3.70;;
42478;SDS011;28110;47.080;9.476;2023-03-23T03:29:58;7.50;;;4.07;;
42478;SDS011;28110;47.080;9.476;2023-03-23T03:32:28;12.23;;;4.30;;
42478;SDS011;28110;47.080;9.476;2023-03-23T03:35:00;5.57;;;4.13;;
42478;SDS011;28110;47.080;9.476;2023-03-23T03:37:26;7.07;;;4.05;;
42478;SDS011;28110;47.080;9.476;2023-03-23T03:39:52;6.33;;;3.97;;
42478;SDS011;28110;47.080;9.476;2023-03-23T03:42:17;6.30;;;4.05;;
42478;SDS011;28110;47.080;9.476;2023-03-23T03:44:43;5.57;;;3.63;;
42478;SDS011;28110;47.080;9.476;2023-03-23T03:47:08;7.73;;;4.40;;
42478;SDS011;28110;47.080;9.476;2023-03-23T03:49:34;5.82;;;3.88;;
42478;SDS011;28110;47.080;9.476;2023-03-23T03:52:00;6.73;;;4.03;;
42478;SDS011;28110;47.080;9.476;2023-03-23T03:54:26;6.07;;;3.63;;
42478;SDS011;28110;47.080;9.476;2023-03-23T03:56:52;6.60;;;4.03;;
42478;SDS011;28110;47.080;9.476;2023-03-23T03:59:22;7.03;;;3.58;;
42478;SDS011;28110;47.080;9.476;2023-03-23T04:01:48;6.15;;;4.03;;
42478;SDS011;28110;47.080;9.476;2023-03-23T04:04:18;5.75;;;3.65;;
42478;SDS011;28110;47.080;9.476;2023-03-23T04:06:44;5.57;;;3.70;;
42478;SDS011;28110;47.080;9.476;2023-03-23T04:09:10;9.35;;;4.35;;
42478;SDS011;28110;47.080;9.476;2023-03-23T04:11:35;5.90;;;3.95;;
42478;SDS011;28110;47.080;9.476;2023-03-23T04:14:01;7.43;;;4.13;;
42478;SDS011;28110;47.080;9.476;2023-03-23T04:16:27;5.22;;;3.33;;
42478;SDS011;28110;47.080;9.476;2023-03-23T04:18:54;6.55;;;3.78;;
42478;SDS011;28110;47.080;9.476;2023-03-23T04:21:21;8.88;;;4.10;;
42478;SDS011;28110;47.080;9.476;2023-03-23T04:23:46;6.47;;;3.85;;
42478;SDS011;28110;47.080;9.476;2023-03-23T04:26:12;6.33;;;4.17;;
42478;SDS011;28110;47.080;9.476;2023-03-23T04:28:38;7.22;;;4.20;;
42478;SDS011;28110;47.080;9.476;2023-03-23T04:31:04;7.75;;;4.20;;
42478;SDS011;28110;47.080;9.476;2023-03-23T04:33:29;7.72;;;4.00;;
42478;SDS011;28110;47.080;9.476;2023-03-23T04:35:56;5.13;;;3.87;;
42478;SDS011;28110;47.080;9.476;2023-03-23T04:38:25;7.50;;;3.80;;
42478;SDS011;28110;47.080;9.476;2023-03-23T04:40:52;5.78;;;3.75;;
42478;SDS011;28110;47.080;9.476;2023-03-23T04:43:19;6.20;;;3.97;;
42478;SDS011;28110;47.080;9.476;2023-03-23T04:45:46;6.30;;;3.90;;
42478;SDS011;28110;47.080;9.476;2023-03-23T04:48:16;6.50;;;3.70;;
42478;SDS011;28110;47.080;9.476;2023-03-23T04:50:42;6.43;;;3.83;;
42478;SDS011;28110;47.080;9.476;2023-03-23T04:53:08;6.25;;;3.83;;
42478;SDS011;28110;47.080;9.476;2023-03-23T04:55:35;8.50;;;4.27;;
42478;SDS011;28110;47.080;9.476;2023-03-23T04:58:02;5.55;;;3.47;;
42478;SDS011;28110;47.080;9.476;2023-03-23T05:00:28;8.65;;;4.60;;
42478;SDS011;28110;47.080;9.476;2023-03-23T05:02:54;6.55;;;4.25;;
42478;SDS011;28110;47.080;9.476;2023-03-23T05:05:20;8.03;;;4.10;;
42478;SDS011;28110;47.080;9.476;2023-03-23T05:07:47;7.97;;;4.22;;
42478;SDS011;28110;47.080;9.476;2023-03-23T05:10:14;8.25;;;4.45;;
42478;SDS011;28110;47.080;9.476;2023-03-23T05:12:40;8.85;;;4.72;;
42478;SDS011;28110;47.080;9.476;2023-03-23T05:15:07;8.20;;;4.70;;
42478;SDS011;28110;47.080;9.476;2023-03-23T05:17:34;9.27;;;4.68;;
42478;SDS011;28110;47.080;9.476;2023-03-23T05:20:00;9.07;;;5.32;;
42478;SDS011;28110;47.080;9.476;2023-03-23T05:22:29;6.93;;;3.92;;
42478;SDS011;28110;47.080;9.476;2023-03-23T05:24:57;11.30;;;4.35;;
42478;SDS011;28110;47.080;9.476;2023-03-23T05:27:23;7.25;;;4.38;;
42478;SDS011;28110;47.080;9.476;2023-03-23T05:29:55;8.15;;;4.55;;
42478;SDS011;28110;47.080;9.476;2023-03-23T05:32:27;6.72;;;4.20;;
42478;SDS011;28110;47.080;9.476;2023-03-23T05:34:56;8.00;;;3.90;;
42478;SDS011;28110;47.080;9.476;2023-03-23T05:37:22;7.50;;;4.20;;
42478;SDS011;28110;47.080;9.476;2023-03-23T05:39:49;8.95;;;4.75;;
42478;SDS011;28110;47.080;9.476;2023-03-23T05:42:18;7.55;;;4.32;;
42478;SDS011;28110;47.080;9.476;2023-03-23T05:44:44;6.70;;;4.15;;
42478;SDS011;28110;47.080;9.476;2023-03-23T05:47:10;8.43;;;3.95;;
42478;SDS011;28110;47.080;9.476;2023-03-23T05:49:36;7.45;;;4.15;;
42478;SDS011;28110;47.080;9.476;2023-03-23T05:52:03;7.72;;;4.55;;
42478;SDS011;28110;47.080;9.476;2023-03-23T05:54:28;6.15;;;4.00;;
42478;SDS011;28110;47.080;9.476;2023-03-23T05:56:54;7.77;;;4.30;;
42478;SDS011;28110;47.080;9.476;2023-03-23T05:59:19;7.07;;;4.13;;
42478;SDS011;28110;47.080;9.476;2023-03-23T06:01:46;8.95;;;4.38;;
42478;SDS011;28110;47.080;9.476;2023-03-23T06:04:11;6.40;;;4.30;;
42478;SDS011;28110;47.080;9.476;2023-03-23T06:06:38;5.88;;;4.32;;
42478;SDS011;28110;47.080;9.476;2023-03-23T06:09:04;7.07;;;4.55;;
42478;SDS011;28110;47.080;9.476;2023-03-23T06:11:30;6.83;;;4.60;;
42478;SDS011;28110;47.080;9.476;2023-03-23T06:13:55;7.97;;;4.55;;
42478;SDS011;28110;47.080;9.476;2023-03-23T06:16:21;8.20;;;4.70;;
42478;SDS011;28110;47.080;9.476;2023-03-23T06:18:47;8.48;;;4.47;;
42478;SDS011;28110;47.080;9.476;2023-03-23T06:21:13;8.43;;;4.70;;
42478;SDS011;28110;47.080;9.476;2023-03-23T06:23:39;7.95;;;4.97;;
42478;SDS011;28110;47.080;9.476;2023-03-23T06:26:05;8.15;;;5.03;;
42478;SDS011;28110;47.080;9.476;2023-03-23T06:28:32;8.98;;;4.20;;
42478;SDS011;28110;47.080;9.476;2023-03-23T06:31:02;8.63;;;4.50;;
42478;SDS011;28110;47.080;9.476;2023-03-23T06:33:31;8.02;;;4.38;;
42478;SDS011;28110;47.080;9.476;2023-03-23T06:35:58;8.75;;;4.13;;
42478;SDS011;28110;47.080;9.476;2023-03-23T06:38:24;9.57;;;4.20;;
42478;SDS011;28110;47.080;9.476;2023-03-23T06:40:51;8.40;;;4.28;;
42478;SDS011;28110;47.080;9.476;2023-03-23T06:43:18;9.63;;;4.78;;
42478;SDS011;28110;47.080;9.476;2023-03-23T06:45:43;15.30;;;4.78;;
42478;SDS011;28110;47.080;9.476;2023-03-23T06:48:09;7.93;;;4.57;;
42478;SDS011;28110;47.080;9.476;2023-03-23T06:50:35;7.38;;;4.47;;
42478;SDS011;28110;47.080;9.476;2023-03-23T06:53:00;8.53;;;4.87;;
42478;SDS011;28110;47.080;9.476;2023-03-23T06:55:26;5.90;;;4.10;;
42478;SDS011;28110;47.080;9.476;2023-03-23T06:57:51;9.07;;;4.57;;
42478;SDS011;28110;47.080;9.476;2023-03-23T07:00:17;6.70;;;4.00;;
42478;SDS011;28110;47.080;9.476;2023-03-23T07:02:43;6.88;;;4.43;;
42478;SDS011;28110;47.080;9.476;2023-03-23T07:05:09;7.68;;;4.55;;
42478;SDS011;28110;47.080;9.476;2023-03-23T07:07:36;9.20;;;4.70;;
42478;SDS011;28110;47.080;9.476;2023-03-23T07:10:03;5.95;;;3.92;;
42478;SDS011;28110;47.080;9.476;2023-03-23T07:12:30;10.25;;;4.28;;
42478;SDS011;28110;47.080;9.476;2023-03-23T07:14:56;7.25;;;4.47;;
42478;SDS011;28110;47.080;9.476;2023-03-23T07:17:21;8.40;;;4.10;;
42478;SDS011;28110;47.080;9.476;2023-03-23T07:19:47;5.87;;;3.90;;
42478;SDS011;28110;47.080;9.476;2023-03-23T07:22:12;8.32;;;4.03;;
42478;SDS011;28110;47.080;9.476;2023-03-23T07:24:38;7.33;;;3.90;;
42478;SDS011;28110;47.080;9.476;2023-03-23T07:27:04;8.57;;;4.23;;
42478;SDS011;28110;47.080;9.476;2023-03-23T07:29:30;7.03;;;4.28;;
42478;SDS011;28110;47.080;9.476;2023-03-23T07:31:55;7.80;;;3.90;;
42478;SDS011;28110;47.080;9.476;2023-03-23T07:34:21;7.95;;;3.85;;
42478;SDS011;28110;47.080;9.476;2023-03-23T07:36:47;8.10;;;3.90;;
42478;SDS011;28110;47.080;9.476;2023-03-23T07:39:13;6.80;;;4.43;;
42478;SDS011;28110;47.080;9.476;2023-03-23T07:41:39;7.20;;;4.00;;
42478;SDS011;28110;47.080;9.476;2023-03-23T07:44:04;7.20;;;4.32;;
42478;SDS011;28110;47.080;9.476;2023-03-23T07:46:31;7.70;;;4.30;;
42478;SDS011;28110;47.080;9.476;2023-03-23T07:48:57;6.75;;;3.97;;
42478;SDS011;28110;47.080;9.476;2023-03-23T07:51:23;7.80;;;4.05;;
42478;SDS011;28110;47.080;9.476;2023-03-23T07:53:49;8.98;;;4.35;;
42478;SDS011;28110;47.080;9.476;2023-03-23T07:56:15;7.47;;;3.93;;
42478;SDS011;28110;47.080;9.476;2023-03-23T07:58:44;9.73;;;4.50;;
42478;SDS011;28110;47.080;9.476;2023-03-23T08:01:10;8.80;;;4.72;;
42478;SDS011;28110;47.080;9.476;2023-03-23T08:03:37;7.55;;;4.38;;
42478;SDS011;28110;47.080;9.476;2023-03-23T08:06:03;8.90;;;4.27;;
42478;SDS011;28110;47.080;9.476;2023-03-23T08:08:29;6.22;;;3.67;;
42478;SDS011;28110;47.080;9.476;2023-03-23T08:10:55;6.75;;;4.70;;
42478;SDS011;28110;47.080;9.476;2023-03-23T08:13:20;9.30;;;4.33;;
42478;SDS011;28110;47.080;9.476;2023-03-23T08:15:46;8.63;;;3.88;;
42478;SDS011;28110;47.080;9.476;2023-03-23T08:18:12;7.50;;;4.03;;
42478;SDS011;28110;47.080;9.476;2023-03-23T08:20:37;8.83;;;3.90;;
42478;SDS011;28110;47.080;9.476;2023-03-23T08:23:03;10.27;;;3.97;;
42478;SDS011;28110;47.080;9.476;2023-03-23T08:25:29;8.43;;;3.90;;
42478;SDS011;28110;47.080;9.476;2023-03-23T08:27:56;6.57;;;4.45;;
42478;SDS011;28110;47.080;9.476;2023-03-23T08:30:23;7.43;;;4.05;;
42478;SDS011;28110;47.080;9.476;2023-03-23T08:32:50;5.65;;;4.03;;
42478;SDS011;28110;47.080;9.476;2023-03-23T08:35:17;11.43;;;3.92;;
42478;SDS011;28110;47.080;9.476;2023-03-23T08:37:43;9.70;;;3.75;;
42478;SDS011;28110;47.080;9.476;2023-03-23T08:40:10;6.30;;;3.78;;
42478;SDS011;28110;47.080;9.476;2023-03-23T08:42:39;6.88;;;3.88;;
42478;SDS011;28110;47.080;9.476;2023-03-23T08:45:09;10.75;;;4.20;;
42478;SDS011;28110;47.080;9.476;2023-03-23T08:47:36;5.75;;;3.80;;
42478;SDS011;28110;47.080;9.476;2023-03-23T08:50:03;7.35;;;3.65;;
42478;SDS011;28110;47.080;9.476;2023-03-23T08:52:31;5.75;;;3.90;;
42478;SDS011;28110;47.080;9.476;2023-03-23T08:54:57;10.65;;;4.30;;
42478;SDS011;28110;47.080;9.476;2023-03-23T08:57:23;5.93;;;4.00;;
42478;SDS011;28110;47.080;9.476;2023-03-23T08:59:50;7.70;;;3.65;;
42478;SDS011;28110;47.080;9.476;2023-03-23T09:02:16;4.88;;;3.53;;
42478;SDS011;28110;47.080;9.476;2023-03-23T09:04:42;5.68;;;3.50;;
42478;SDS011;28110;47.080;9.476;2023-03-23T09:07:11;5.93;;;3.92;;
42478;SDS011;28110;47.080;9.476;2023-03-23T09:09:39;6.60;;;3.70;;
42478;SDS011;28110;47.080;9.476;2023-03-23T09:12:06;7.63;;;4.03;;
42478;SDS011;28110;47.080;9.476;2023-03-23T09:14:33;7.50;;;4.10;;
42478;SDS011;28110;47.080;9.476;2023-03-23T09:17:02;5.95;;;4.00;;
42478;SDS011;28110;47.080;9.476;2023-03-23T09:19:29;7.82;;;4.03;;
42478;SDS011;28110;47.080;9.476;2023-03-23T09:21:55;5.80;;;3.87;;
42478;SDS011;28110;47.080;9.476;2023-03-23T09:24:21;9.27;;;4.20;;
42478;SDS011;28110;47.080;9.476;2023-03-23T09:26:47;11.45;;;4.85;;
42478;SDS011;28110;47.080;9.476;2023-03-23T09:29:13;5.57;;;3.57;;
42478;SDS011;28110;47.080;9.476;2023-03-23T09:31:39;7.10;;;4.03;;
42478;SDS011;28110;47.080;9.476;2023-03-23T09:34:08;8.70;;;3.55;;
42478;SDS011;28110;47.080;9.476;2023-03-23T09:36:37;6.80;;;3.85;;
42478;SDS011;28110;47.080;9.476;2023-03-23T09:39:03;10.30;;;3.75;;
42478;SDS011;28110;47.080;9.476;2023-03-23T09:41:59;9.27;;;3.95;;
42478;SDS011;28110;47.080;9.476;2023-03-23T09:44:38;4.60;;;3.50;;
42478;SDS011;28110;47.080;9.476;2023-03-23T09:50:11;5.88;;;4.03;;
42478;SDS011;28110;47.080;9.476;2023-03-23T09:55:41;5.90;;;3.40;;
42478;SDS011;28110;47.080;9.476;2023-03-23T10:00:58;6.43;;;3.47;;
42478;SDS011;28110;47.080;9.476;2023-03-23T10:03:26;7.03;;;3.85;;
42478;SDS011;28110;47.080;9.476;2023-03-23T10:05:58;6.25;;;3.70;;
42478;SDS011;28110;47.080;9.476;2023-03-23T10:08:24;5.50;;;3.20;;
42478;SDS011;28110;47.080;9.476;2023-03-23T10:16:33;6.28;;;3.50;;
42478;SDS011;28110;47.080;9.476;2023-03-23T10:19:11;7.20;;;3.70;;
42478;SDS011;28110;47.080;9.476;2023-03-23T10:21:38;6.03;;;3.75;;
42478;SDS011;28110;47.080;9.476;2023-03-23T10:24:10;8.82;;;4.65;;
42478;SDS011;28110;47.080;9.476;2023-03-23T10:29:52;7.32;;;4.00;;
42478;SDS011;28110;47.080;9.476;2023-03-23T10:32:38;7.03;;;4.90;;
42478;SDS011;28110;47.080;9.476;2023-03-23T10:35:18;8.80;;;4.68;;
42478;SDS011;28110;47.080;9.476;2023-03-23T10:37:59;6.03;;;3.97;;
42478;SDS011;28110;47.080;9.476;2023-03-23T10:40:29;7.03;;;4.22;;
42478;SDS011;28110;47.080;9.476;2023-03-23T10:42:56;6.75;;;4.60;;
42478;SDS011;28110;47.080;9.476;2023-03-23T10:45:27;6.30;;;4.40;;
42478;SDS011;28110;47.080;9.476;2023-03-23T10:48:18;7.95;;;4.72;;
42478;SDS011;28110;47.080;9.476;2023-03-23T10:50:54;7.60;;;4.72;;
42478;SDS011;28110;47.080;9.476;2023-03-23T10:53:23;5.80;;;3.75;;
42478;SDS011;28110;47.080;9.476;2023-03-23T10:56:02;7.07;;;3.75;;
42478;SDS011;28110;47.080;9.476;2023-03-23T10:58:30;7.10;;;3.80;;
42478;SDS011;28110;47.080;9.476;2023-03-23T11:00:58;9.27;;;4.88;;
42478;SDS011;28110;47.080;9.476;2023-03-23T11:03:28;6.22;;;4.32;;
42478;SDS011;28110;47.080;9.476;2023-03-23T11:05:56;5.57;;;4.10;;
42478;SDS011;28110;47.080;9.476;2023-03-23T11:08:24;6.10;;;4.30;;
42478;SDS011;28110;47.080;9.476;2023-03-23T11:10:57;8.63;;;4.27;;
42478;SDS011;28110;47.080;9.476;2023-03-23T11:13:44;6.25;;;3.60;;
42478;SDS011;28110;47.080;9.476;2023-03-23T11:16:21;8.50;;;3.38;;
42478;SDS011;28110;47.080;9.476;2023-03-23T11:18:55;5.75;;;4.10;;
42478;SDS011;28110;47.080;9.476;2023-03-23T11:21:23;9.98;;;4.90;;
42478;SDS011;28110;47.080;9.476;2023-03-23T11:23:52;8.73;;;4.40;;
42478;SDS011;28110;47.080;9.476;2023-03-23T11:31:36;6.65;;;4.15;;
42478;SDS011;28110;47.080;9.476;2023-03-23T11:34:21;5.82;;;4.32;;
42478;SDS011;28110;47.080;9.476;2023-03-23T11:36:53;10.00;;;4.73;;
42478;SDS011;28110;47.080;9.476;2023-03-23T11:41:51;7.40;;;4.57;;
42478;SDS011;28110;47.080;9.476;2023-03-23T11:44:17;8.73;;;5.43;;
42478;SDS011;28110;47.080;9.476;2023-03-23T11:49:18;11.55;;;6.88;;
42478;SDS011;28110;47.080;9.476;2023-03-23T11:52:19;10.85;;;6.38;;
42478;SDS011;28110;47.080;9.476;2023-03-23T11:54:54;16.20;;;7.30;;
42478;SDS011;28110;47.080;9.476;2023-03-23T11:57:28;13.07;;;7.07;;
42478;SDS011;28110;47.080;9.476;2023-03-23T11:59:55;11.55;;;6.85;;
42478;SDS011;28110;47.080;9.476;2023-03-23T12:02:32;9.52;;;6.63;;
42478;SDS011;28110;47.080;9.476;2023-03-23T12:16:02;13.13;;;7.47;;
42478;SDS011;28110;47.080;9.476;2023-03-23T12:29:08;14.05;;;7.55;;
42478;SDS011;28110;47.080;9.476;2023-03-23T12:31:56;13.18;;;6.63;;
42478;SDS011;28110;47.080;9.476;2023-03-23T12:34:47;13.13;;;6.90;;
42478;SDS011;28110;47.080;9.476;2023-03-23T12:37:36;12.10;;;6.57;;
42478;SDS011;28110;47.080;9.476;2023-03-23T12:40:28;10.27;;;6.38;;
42478;SDS011;28110;47.080;9.476;2023-03-23T12:57:22;12.40;;;6.60;;
42478;SDS011;28110;47.080;9.476;2023-03-23T13:00:22;9.98;;;6.30;;
42478;SDS011;28110;47.080;9.476;2023-03-23T13:10:42;8.07;;;4.68;;
42478;SDS011;28110;47.080;9.476;2023-03-23T13:16:13;8.33;;;5.60;;
42478;SDS011;28110;47.080;9.476;2023-03-23T13:18:52;9.68;;;5.53;;
42478;SDS011;28110;47.080;9.476;2023-03-23T13:21:34;8.27;;;5.15;;
42478;SDS011;28110;47.080;9.476;2023-03-23T13:24:16;16.15;;;5.65;;
42478;SDS011;28110;47.080;9.476;2023-03-23T13:26:45;29.55;;;8.05;;
42478;SDS011;28110;47.080;9.476;2023-03-23T13:29:20;11.47;;;6.70;;
42478;SDS011;28110;47.080;9.476;2023-03-23T13:31:49;13.27;;;6.60;;
42478;SDS011;28110;47.080;9.476;2023-03-23T13:34:22;12.18;;;6.70;;
42478;SDS011;28110;47.080;9.476;2023-03-23T13:36:53;9.32;;;5.50;;
42478;SDS011;28110;47.080;9.476;2023-03-23T13:39:23;11.05;;;6.47;;
42478;SDS011;28110;47.080;9.476;2023-03-23T13:44:39;11.63;;;6.68;;
42478;SDS011;28110;47.080;9.476;2023-03-23T13:47:08;9.55;;;5.60;;
42478;SDS011;28110;47.080;9.476;2023-03-23T13:50:05;9.50;;;5.70;;
42478;SDS011;28110;47.080;9.476;2023-03-23T13:52:54;8.15;;;5.20;;
42478;SDS011;28110;47.080;9.476;2023-03-23T13:55:30;8.23;;;5.10;;
42478;SDS011;28110;47.080;9.476;2023-03-23T14:18:36;3.33;;;2.30;;
42478;SDS011;28110;47.080;9.476;2023-03-23T14:21:04;5.73;;;2.90;;
42478;SDS011;28110;47.080;9.476;2023-03-23T14:23:33;4.60;;;2.55;;
42478;SDS011;28110;47.080;9.476;2023-03-23T14:26:01;8.60;;;2.10;;
42478;SDS011;28110;47.080;9.476;2023-03-23T14:28:38;3.78;;;1.90;;
42478;SDS011;28110;47.080;9.476;2023-03-23T14:31:05;5.13;;;2.00;;
42478;SDS011;28110;47.080;9.476;2023-03-23T14:33:39;5.47;;;2.13;;
42478;SDS011;28110;47.080;9.476;2023-03-23T14:36:06;2.70;;;1.55;;
42478;SDS011;28110;47.080;9.476;2023-03-23T14:38:32;9.10;;;1.90;;
42478;SDS011;28110;47.080;9.476;2023-03-23T14:41:02;6.53;;;2.38;;
42478;SDS011;28110;47.080;9.476;2023-03-23T14:43:29;2.73;;;1.90;;
42478;SDS011;28110;47.080;9.476;2023-03-23T14:45:58;3.85;;;1.95;;
42478;SDS011;28110;47.080;9.476;2023-03-23T14:48:26;4.80;;;2.10;;
42478;SDS011;28110;47.080;9.476;2023-03-23T14:51:00;4.00;;;2.42;;
42478;SDS011;28110;47.080;9.476;2023-03-23T14:53:37;4.65;;;1.98;;
42478;SDS011;28110;47.080;9.476;2023-03-23T14:56:17;3.53;;;1.80;;
42478;SDS011;28110;47.080;9.476;2023-03-23T14:58:45;5.97;;;2.08;;
42478;SDS011;28110;47.080;9.476;2023-03-23T15:01:13;5.70;;;2.00;;
42478;SDS011;28110;47.080;9.476;2023-03-23T15:03:55;6.68;;;2.42;;
42478;SDS011;28110;47.080;9.476;2023-03-23T15:06:27;21.02;;;3.95;;
42478;SDS011;28110;47.080;9.476;2023-03-23T15:08:56;2.63;;;1.90;;
42478;SDS011;28110;47.080;9.476;2023-03-23T15:11:35;3.35;;;2.00;;
42478;SDS011;28110;47.080;9.476;2023-03-23T15:14:08;7.47;;;2.20;;
42478;SDS011;28110;47.080;9.476;2023-03-23T15:16:40;2.80;;;1.95;;
42478;SDS011;28110;47.080;9.476;2023-03-23T15:19:22;3.83;;;2.15;;
42478;SDS011;28110;47.080;9.476;2023-03-23T15:21:54;9.17;;;2.30;;
42478;SDS011;28110;47.080;9.476;2023-03-23T15:24:24;5.63;;;2.00;;
42478;SDS011;28110;47.080;9.476;2023-03-23T15:27:10;5.13;;;1.92;;
42478;SDS011;28110;47.080;9.476;2023-03-23T15:29:47;3.75;;;1.65;;
42478;SDS011;28110;47.080;9.476;2023-03-23T15:32:20;7.07;;;2.33;;
42478;SDS011;28110;47.080;9.476;2023-03-23T15:34:53;3.50;;;1.90;;
42478;SDS011;28110;47.080;9.476;2023-03-23T15:37:27;4.40;;;2.00;;
42478;SDS011;28110;47.080;9.476;2023-03-23T15:39:55;2.90;;;2.03;;
42478;SDS011;28110;47.080;9.476;2023-03-23T15:42:23;3.55;;;2.08;;
42478;SDS011;28110;47.080;9.476;2023-03-23T15:45:02;4.00;;;2.05;;
42478;SDS011;28110;47.080;9.476;2023-03-23T15:47:44;3.83;;;1.93;;
42478;SDS011;28110;47.080;9.476;2023-03-23T15:50:19;4.60;;;1.90;;
42478;SDS011;28110;47.080;9.476;2023-03-23T15:53:00;2.25;;;1.60;;
42478;SDS011;28110;47.080;9.476;2023-03-23T15:55:42;7.78;;;1.70;;
42478;SDS011;28110;47.080;9.476;2023-03-23T15:58:11;3.37;;;1.77;;
42478;SDS011;28110;47.080;9.476;2023-03-23T16:00:38;3.08;;;2.10;;
42478;SDS011;28110;47.080;9.476;2023-03-23T16:03:05;1.90;;;1.60;;
42478;SDS011;28110;47.080;9.476;2023-03-23T16:05:35;6.70;;;1.92;;
42478;SDS011;28110;47.080;9.476;2023-03-23T16:08:01;2.50;;;1.80;;
42478;SDS011;28110;47.080;9.476;2023-03-23T16:10:27;5.00;;;1.90;;
42478;SDS011;28110;47.080;9.476;2023-03-23T16:12:53;4.77;;;1.93;;
42478;SDS011;28110;47.080;9.476;2023-03-23T16:15:18;2.38;;;1.80;;
42478;SDS011;28110;47.080;9.476;2023-03-23T16:17:44;2.47;;;1.53;;
42478;SDS011;28110;47.080;9.476;2023-03-23T16:20:11;3.72;;;1.67;;
42478;SDS011;28110;47.080;9.476;2023-03-23T16:22:38;4.38;;;1.88;;
42478;SDS011;28110;47.080;9.476;2023-03-23T16:25:04;3.87;;;1.97;;
42478;SDS011;28110;47.080;9.476;2023-03-23T16:27:31;4.90;;;2.33;;
42478;SDS011;28110;47.080;9.476;2023-03-23T16:29:57;5.10;;;1.90;;
42478;SDS011;28110;47.080;9.476;2023-03-23T16:32:24;3.20;;;1.70;;
42478;SDS011;28110;47.080;9.476;2023-03-23T16:34:50;1.90;;;1.60;;
42478;SDS011;28110;47.080;9.476;2023-03-23T16:37:16;4.90;;;1.95;;
42478;SDS011;28110;47.080;9.476;2023-03-23T16:39:42;4.13;;;1.50;;
42478;SDS011;28110;47.080;9.476;2023-03-23T16:42:07;2.90;;;1.70;;
42478;SDS011;28110;47.080;9.476;2023-03-23T16:44:33;4.73;;;1.90;;
42478;SDS011;28110;47.080;9.476;2023-03-23T16:46:58;6.28;;;1.90;;
42478;SDS011;28110;47.080;9.476;2023-03-23T16:49:24;3.80;;;1.60;;
42478;SDS011;28110;47.080;9.476;2023-03-23T16:51:49;4.83;;;1.73;;